Terminal Aerodrome Forecast
Issued by NWS

Home | Current Version | Previous Version | Text Only | Print | Product List | Glossary On
Versions: 1 2 3 4 5 6 7 8 9 10 11 12 13 14 15 16 17 18 19 20 21 22 23 24 25 26
000
FTUS45 KBOI 301316 AAX
TAFBKE
TAF AMD
KBKE 301316Z 3013/3112 VRB04KT P6SM BKN100
     FM301900 12018G28KT P6SM VCSH SCT100 BKN200
      TEMPO 3022/3102 VRB20G35KT -TSRA BKN050CB
     FM310300 28015G25KT P6SM SCT150=

USA.gov is the U.S. government's official web portal to all federal, state and local government web resources and services.